ESSA/ARN METAR and TAF weather

Enter ICAO airport designator
Station Type Date Time Source
ESSA METAR 2020/09/20 13:50 UTC NOAA

ESSA 201350Z 25011KT 9999 BKN013 11/09 Q1017 NOSIG


Station Type Date Time Source
ESSA Decoded METAR 2020/09/20 13:50 UTC NOAA

Stockholm / Arlanda, Sweden (ESSA) 59-39N 017-57E 61M
Sep 20, 2020 - 09:50 AM EDT / 2020.09.20 1350 UTC
Wind: from the WSW (250 degrees) at 13 MPH (11 KT):0
Visibility: greater than 7 mile(s):0
Sky conditions: mostly cloudy
Temperature: 51 F (11 C)
Dew Point: 48 F (9 C)
Relative Humidity: 87%
Pressure (altimeter): 30.03 in. Hg (1017 hPa)
ob: ESSA 201350Z 25011KT 9999 BKN013 11/09 Q1017 NOSIG
cycle: 14

Station Type Date Time Source
ESSA TAF 2020/09/20 13:39 UTC NOAA

TAF
AMD TAF
AMD ESSA 201332Z 2013/2112 25009KT 9999 BKN015
TEMPO 2013/2018 BKN012 PROB40 2022/2106 2000 BR PROB40 2108/2112 BKN008

Example: see airport list